Time;durP1;ratioP1;P1;durP2;ratioP2;P2;SDS_P1;SDS_P2;PMS_P1;PMS_P2;Temp;Humidity;BMP_temperature;BMP_pressure;BME280_temperature;BME280_humidity;BME280_pressure;Samples;Min_cycle;Max_cycle;Signal;HPM_P1;HPM_P2
2023/07/25 00:00:22;;;;;;;3.72;1.30;;;;;;;23.32;49.99;100408.66;5035701;28;20098;-65
2023/07/25 00:02:49;;;;;;;7.22;1.23;;;;;;;23.34;50.42;100411.19;5052348;28;20040;-65
2023/07/25 00:05:14;;;;;;;3.67;1.30;;;;;;;23.33;49.73;100421.28;5051876;28;20028;-65
2023/07/25 00:07:39;;;;;;;4.32;1.55;;;;;;;23.34;50.24;100422.13;5052144;28;20033;-65
2023/07/25 00:10:05;;;;;;;1.30;0.90;;;;;;;23.34;49.52;100428.41;5035348;28;20025;-65
2023/07/25 00:12:30;;;;;;;3.67;1.45;;;;;;;23.32;50.39;100414.13;5052121;28;20056;-65
2023/07/25 00:14:56;;;;;;;3.35;1.42;;;;;;;23.34;50.08;100414.72;5052040;28;20404;-65
2023/07/25 00:17:21;;;;;;;2.90;1.40;;;;;;;23.35;49.47;100421.03;5018953;28;20090;-65
2023/07/25 00:19:46;;;;;;;6.97;1.70;;;;;;;23.35;49.71;100423.78;5051839;28;20119;-65
2023/07/25 00:22:12;;;;;;;2.28;1.27;;;;;;;23.33;50.07;100426.75;5051938;28;20033;-65
2023/07/25 00:24:37;;;;;;;3.55;1.50;;;;;;;23.33;49.72;100426.75;5035414;28;20505;-65
2023/07/25 00:27:03;;;;;;;4.53;1.60;;;;;;;23.32;49.80;100419.59;5049566;28;20131;-65
2023/07/25 00:29:28;;;;;;;3.95;2.03;;;;;;;23.34;49.55;100416.66;5051961;28;20055;-65
2023/07/25 00:31:53;;;;;;;4.95;1.92;;;;;;;23.34;50.25;100422.94;5053204;28;20033;-65
2023/07/25 00:34:19;;;;;;;6.05;1.30;;;;;;;23.33;49.42;100424.00;5053192;28;20032;-65
2023/07/25 00:36:44;;;;;;;6.13;1.45;;;;;;;23.35;49.84;100418.31;5051771;28;20037;-65
2023/07/25 00:39:11;;;;;;;4.18;1.58;;;;;;;23.33;50.13;100420.44;5052772;28;20033;-65
2023/07/25 00:41:36;;;;;;;3.42;1.60;;;;;;;23.33;50.22;100429.47;5052866;28;20048;-61
2023/07/25 00:44:02;;;;;;;3.65;1.52;;;;;;;23.34;49.54;100424.84;5051501;28;20522;-61
2023/07/25 00:46:27;;;;;;;2.38;1.67;;;;;;;23.33;49.63;100425.91;5052907;28;20029;-60
2023/07/25 00:48:53;;;;;;;2.95;1.77;;;;;;;23.32;49.30;100429.69;5034669;28;20033;-61
2023/07/25 00:51:18;;;;;;;9.70;1.92;;;;;;;23.31;49.65;100422.56;5059054;28;20037;-62
2023/07/25 00:53:43;;;;;;;1.92;1.40;;;;;;;23.32;49.52;100416.84;5052887;28;20037;-61
2023/07/25 00:56:09;;;;;;;5.38;1.60;;;;;;;23.31;49.75;100414.34;5018299;28;20120;-61
2023/07/25 00:58:35;;;;;;;1.65;1.55;;;;;;;23.31;49.99;100414.34;5034522;28;20123;-62
2023/07/25 01:01:04;;;;;;;6.70;1.90;;;;;;;23.31;50.41;100409.69;5051641;28;20036;-61
2023/07/25 01:03:31;;;;;;;1.92;1.67;;;;;;;23.31;49.87;100403.44;5053604;28;20033;-61
2023/07/25 01:06:00;;;;;;;4.93;1.70;;;;;;;23.30;49.76;100401.75;5052177;28;20105;-60
2023/07/25 01:08:25;;;;;;;5.60;1.42;;;;;;;23.28;49.94;100404.72;5051449;28;20013;-61
2023/07/25 01:10:51;;;;;;;2.55;2.00;;;;;;;23.27;49.71;100403.03;5052711;28;20036;-61
2023/07/25 01:13:16;;;;;;;3.00;2.20;;;;;;;23.25;49.59;100398.84;5051429;28;20112;-61
2023/07/25 01:15:42;;;;;;;3.08;1.33;;;;;;;23.21;49.60;100398.44;5051250;28;20021;-61
2023/07/25 01:18:08;;;;;;;5.32;1.98;;;;;;;23.21;49.26;100395.69;5056146;28;20033;-61
2023/07/25 01:20:34;;;;;;;6.00;2.40;;;;;;;23.19;49.64;100393.22;5055266;28;20472;-60
2023/07/25 01:23:01;;;;;;;6.03;2.10;;;;;;;23.19;50.24;100386.91;5038671;28;20056;-60
2023/07/25 01:25:27;;;;;;;6.13;2.25;;;;;;;23.18;49.22;100379.75;5055317;28;20028;-61
2023/07/25 01:27:52;;;;;;;4.38;2.30;;;;;;;23.13;50.22;100371.38;5056748;28;20021;-61
2023/07/25 01:30:17;;;;;;;8.25;2.20;;;;;;;23.15;50.28;100372.00;5056405;28;20021;-60
2023/07/25 01:32:43;;;;;;;4.68;2.50;;;;;;;23.14;49.88;100368.41;5055154;28;20075;-60
2023/07/25 01:35:08;;;;;;;4.07;2.58;;;;;;;23.13;49.39;100371.38;5056275;28;20147;-61
2023/07/25 01:37:34;;;;;;;3.55;1.92;;;;;;;23.12;49.79;100366.97;5054763;28;20126;-62
2023/07/25 01:40:00;;;;;;;7.90;2.22;;;;;;;23.11;49.88;100370.78;5056438;28;20384;-61
2023/07/25 01:42:25;;;;;;;4.13;2.53;;;;;;;23.10;49.23;100367.19;5056786;28;20037;-61
2023/07/25 01:44:50;;;;;;;7.63;2.10;;;;;;;23.08;49.74;100357.56;5056410;28;20033;-62
2023/07/25 01:47:16;;;;;;;6.13;2.58;;;;;;;23.07;49.93;100364.91;5054571;28;20052;-62
2023/07/25 01:49:41;;;;;;;9.65;1.95;;;;;;;23.08;49.32;100371.22;5054871;28;20052;-62
2023/07/25 01:52:07;;;;;;;3.53;1.88;;;;;;;23.08;50.25;100363.03;5055940;28;20460;-62
2023/07/25 01:54:32;;;;;;;8.27;2.22;;;;;;;23.09;50.22;100372.88;5055953;28;20040;-62
2023/07/25 01:56:57;;;;;;;5.05;1.98;;;;;;;23.07;50.38;100366.78;5055946;28;20039;-62
2023/07/25 01:59:23;;;;;;;4.28;2.00;;;;;;;23.07;50.05;100366.78;5054608;28;20060;-62
2023/07/25 02:01:48;;;;;;;8.80;2.20;;;;;;;23.06;49.84;100365.97;5055770;28;20527;-62
2023/07/25 02:04:14;;;;;;;4.82;1.70;;;;;;;23.03;49.63;100362.84;5055883;28;20029;-61
2023/07/25 02:06:39;;;;;;;3.28;1.67;;;;;;;23.06;49.76;100370.63;5054490;28;20063;-62
2023/07/25 02:09:04;;;;;;;4.20;2.13;;;;;;;23.05;49.80;100368.94;5037890;28;20048;-62
2023/07/25 02:11:30;;;;;;;3.03;1.73;;;;;;;23.04;49.95;100367.25;5054242;28;20048;-62
2023/07/25 02:13:55;;;;;;;3.78;1.98;;;;;;;23.04;50.32;100373.53;5055676;28;20048;-62
2023/07/25 02:16:20;;;;;;;3.38;1.65;;;;;;;23.04;50.35;100372.69;5054270;28;20492;-61
2023/07/25 02:18:46;;;;;;;3.53;1.95;;;;;;;23.02;49.70;100364.75;5037762;28;20363;-61
2023/07/25 02:21:11;;;;;;;7.10;2.50;;;;;;;23.03;50.11;100365.59;5054331;28;20032;-61
2023/07/25 02:23:36;;;;;;;7.43;2.13;;;;;;;23.02;49.91;100370.22;5054771;28;20564;-61
2023/07/25 02:26:02;;;;;;;6.40;1.88;;;;;;;23.02;49.69;100369.38;5054501;28;20025;-61
2023/07/25 02:28:27;;;;;;;6.78;2.08;;;;;;;22.99;49.82;100365.19;5052722;28;20033;-61
2023/07/25 02:30:52;;;;;;;5.28;2.15;;;;;;;23.00;50.18;100371.50;5054344;28;20029;-61
2023/07/25 02:33:18;;;;;;;3.85;2.05;;;;;;;22.97;49.58;100363.72;5055592;28;20477;-61
2023/07/25 02:35:44;;;;;;;5.85;2.22;;;;;;;22.95;49.88;100363.09;5055313;28;20029;-61
2023/07/25 02:38:09;;;;;;;6.18;2.67;;;;;;;22.93;49.78;100366.06;5054122;28;20033;-61
2023/07/25 02:40:35;;;;;;;4.15;1.92;;;;;;;22.90;50.15;100365.66;5055057;28;20476;-61
2023/07/25 02:43:02;;;;;;;10.60;2.50;;;;;;;22.87;49.69;100363.38;5037118;28;20041;-61
2023/07/25 02:45:28;;;;;;;8.02;2.28;;;;;;;22.87;49.64;100364.22;5053828;28;20036;-61
2023/07/25 02:47:53;;;;;;;4.07;2.00;;;;;;;22.83;49.47;100370.34;5055211;28;20111;-61
2023/07/25 02:50:19;;;;;;;2.95;1.90;;;;;;;22.79;50.13;100369.09;5054458;28;20041;-61
2023/07/25 02:52:44;;;;;;;6.25;2.33;;;;;;;22.77;49.19;100361.13;5055891;28;20052;-61
2023/07/25 02:55:09;;;;;;;5.65;2.35;;;;;;;22.73;49.65;100354.41;5054633;28;20104;-61
2023/07/25 02:57:35;;;;;;;7.38;2.20;;;;;;;22.68;49.71;100356.97;5053462;28;20041;-61
2023/07/25 03:00:00;;;;;;;5.72;2.13;;;;;;;22.64;49.41;100360.38;5054951;28;20033;-61
2023/07/25 03:02:25;;;;;;;6.85;3.10;;;;;;;22.56;49.55;100365.00;5053356;28;20037;-61
2023/07/25 03:04:52;;;;;;;3.80;2.13;;;;;;;22.51;50.23;100359.34;5054384;28;20500;-61
2023/07/25 03:07:17;;;;;;;5.65;1.90;;;;;;;22.47;50.25;100365.47;5054915;28;20033;-61
2023/07/25 03:09:44;;;;;;;3.95;1.90;;;;;;;22.43;49.62;100359.59;5047040;28;20454;-61
2023/07/25 03:12:09;;;;;;;6.35;2.22;;;;;;;22.38;50.12;100359.44;5064898;28;20385;-61
2023/07/25 03:14:34;;;;;;;5.50;2.20;;;;;;;22.34;49.28;100366.38;5053327;28;20086;-61
2023/07/25 03:17:00;;;;;;;7.47;1.92;;;;;;;22.29;50.19;100363.44;5053291;28;20078;-61
2023/07/25 03:19:25;;;;;;;8.70;2.47;;;;;;;22.24;49.74;100360.53;5053679;28;20033;-61
2023/07/25 03:21:51;;;;;;;5.38;2.00;;;;;;;22.22;49.87;100364.53;5054710;28;20507;-61
2023/07/25 03:24:16;;;;;;;12.38;2.30;;;;;;;22.17;49.89;100354.25;5053861;28;20048;-61
2023/07/25 03:26:42;;;;;;;3.45;1.90;;;;;;;22.10;49.46;100356.19;5054211;28;20033;-61
2023/07/25 03:29:07;;;;;;;7.00;2.53;;;;;;;22.05;50.02;100356.00;5054305;28;20500;-61
2023/07/25 03:31:32;;;;;;;6.38;2.42;;;;;;;22.02;49.32;100356.44;5054804;28;20040;-61
2023/07/25 03:33:58;;;;;;;4.38;2.03;;;;;;;21.98;49.66;100356.00;5054391;28;20033;-61
2023/07/25 03:36:24;;;;;;;5.47;2.03;;;;;;;21.95;50.21;100361.91;5036286;28;20040;-61
2023/07/25 03:38:49;;;;;;;5.20;2.00;;;;;;;21.92;50.22;100361.47;5052764;28;20059;-61
2023/07/25 03:41:14;;;;;;;3.63;2.42;;;;;;;21.89;49.84;100356.44;5035998;28;20057;-61
2023/07/25 03:43:40;;;;;;;4.43;2.88;;;;;;;21.86;49.64;100352.22;5036402;28;20519;-61
2023/07/25 03:46:06;;;;;;;5.82;2.50;;;;;;;21.82;49.75;100353.72;5037328;28;20029;-60
2023/07/25 03:48:32;;;;;;;6.22;2.20;;;;;;;21.80;50.53;100355.00;5052765;28;20076;-61
2023/07/25 03:50:57;;;;;;;4.93;2.22;;;;;;;21.75;50.03;100355.63;5054569;28;20114;-61
2023/07/25 03:53:22;;;;;;;5.57;2.10;;;;;;;21.76;49.62;100359.19;5053463;28;20112;-61
2023/07/25 03:55:48;;;;;;;3.78;2.10;;;;;;;21.71;49.36;100354.38;5054808;28;20036;-61
2023/07/25 03:58:13;;;;;;;3.65;2.35;;;;;;;21.70;50.06;100355.41;5052921;28;20032;-61
2023/07/25 04:00:41;;;;;;;3.38;2.35;;;;;;;21.68;49.97;100354.81;5053047;28;20033;-61
2023/07/25 04:03:06;;;;;;;3.70;2.33;;;;;;;21.69;50.31;100344.75;5053078;28;20041;-61
2023/07/25 04:05:32;;;;;;;6.88;2.33;;;;;;;21.68;49.79;100343.06;5052816;28;20045;-61
2023/07/25 04:07:57;;;;;;;1.67;1.45;;;;;;;21.68;50.50;100332.16;5054294;28;20033;-61
2023/07/25 04:10:22;;;;;;;3.00;1.80;;;;;;;21.69;49.60;100328.38;5053126;28;20029;-61
2023/07/25 04:12:48;;;;;;;5.05;2.20;;;;;;;21.67;50.39;100325.84;5052887;28;20106;-61
2023/07/25 04:15:13;;;;;;;6.05;1.92;;;;;;;21.68;50.49;100332.16;5053423;28;20028;-61
2023/07/25 04:17:38;;;;;;;8.13;2.70;;;;;;;21.67;50.33;100325.00;5053457;28;20037;-61
2023/07/25 04:20:04;;;;;;;7.13;2.33;;;;;;;21.68;49.89;100332.16;5053161;28;20037;-61
2023/07/25 04:22:30;;;;;;;4.28;2.08;;;;;;;21.73;50.80;100332.34;5051686;28;20041;-61
2023/07/25 04:24:55;;;;;;;7.18;2.70;;;;;;;21.75;50.14;100339.25;5053202;28;20036;-61
2023/07/25 04:27:21;;;;;;;7.10;2.72;;;;;;;21.79;50.18;100334.22;5053348;28;20036;-61
2023/07/25 04:29:46;;;;;;;5.32;2.88;;;;;;;21.82;49.97;100340.09;5051768;28;20482;-61
2023/07/25 04:32:12;;;;;;;6.63;2.75;;;;;;;21.87;50.65;100331.28;5051929;28;20060;-61
2023/07/25 04:34:37;;;;;;;6.07;2.65;;;;;;;21.93;50.85;100341.34;5052152;28;20029;-60
2023/07/25 04:37:03;;;;;;;6.43;2.50;;;;;;;22.00;49.79;100339.41;5052917;28;20381;-61
2023/07/25 04:39:28;;;;;;;4.50;3.00;;;;;;;22.05;50.13;100334.19;5051934;28;20052;-61
2023/07/25 04:41:53;;;;;;;5.47;2.85;;;;;;;22.07;50.20;100332.06;5035456;28;20512;-61
2023/07/25 04:44:19;;;;;;;10.68;3.28;;;;;;;22.12;49.64;100336.84;5054245;28;20422;-61
2023/07/25 04:46:44;;;;;;;5.00;3.00;;;;;;;22.09;50.91;100329.09;5035441;28;20037;-61
2023/07/25 04:49:11;;;;;;;5.80;3.30;;;;;;;22.15;50.88;100342.72;5052817;28;20393;-61
2023/07/25 04:51:38;;;;;;;6.68;2.40;;;;;;;22.17;50.21;100343.34;5052303;28;20068;-60
2023/07/25 04:54:03;;;;;;;7.03;2.95;;;;;;;22.19;49.76;100341.25;5034853;28;20033;-61
2023/07/25 04:56:28;;;;;;;6.43;2.95;;;;;;;22.22;50.80;100340.78;5051646;28;20527;-61
2023/07/25 04:58:54;;;;;;;4.40;3.42;;;;;;;22.24;50.32;100344.16;5051616;28;20075;-61
2023/07/25 05:01:19;;;;;;;8.20;3.00;;;;;;;22.29;50.30;100347.06;5053317;28;20511;-60
2023/07/25 05:03:45;;;;;;;6.05;3.78;;;;;;;22.32;50.41;100349.38;5051437;28;20120;-61
2023/07/25 05:06:11;;;;;;;9.90;2.85;;;;;;;22.34;50.02;100347.25;5052987;28;20035;-60
2023/07/25 05:08:37;;;;;;;5.97;3.10;;;;;;;22.37;50.44;100344.09;5053248;28;20059;-61
2023/07/25 05:11:02;;;;;;;8.63;3.10;;;;;;;22.39;49.82;100344.72;5052820;28;20536;-61
2023/07/25 05:13:27;;;;;;;5.88;3.92;;;;;;;22.40;50.11;100354.59;5051795;28;20033;-61
2023/07/25 05:15:53;;;;;;;6.20;3.22;;;;;;;22.42;49.79;100351.63;5052572;28;20523;-61
2023/07/25 05:18:18;;;;;;;7.20;3.05;;;;;;;22.45;50.50;100352.03;5052068;28;20032;-61
2023/07/25 05:20:44;;;;;;;10.38;3.47;;;;;;;22.46;50.39;100353.72;5034105;28;20025;-61
2023/07/25 05:23:10;;;;;;;10.80;3.38;;;;;;;22.48;49.64;100353.47;5034154;28;20037;-61
2023/07/25 05:25:36;;;;;;;6.88;3.63;;;;;;;22.49;49.75;100358.75;5050574;28;20514;-61
2023/07/25 05:28:01;;;;;;;7.35;3.15;;;;;;;22.53;49.54;100365.44;5051028;28;20460;-62
2023/07/25 05:30:26;;;;;;;4.95;3.10;;;;;;;22.56;49.33;100366.88;5052668;28;20028;-61
2023/07/25 05:32:52;;;;;;;7.43;3.17;;;;;;;22.58;49.88;100371.06;5052070;28;20373;-61
2023/07/25 05:35:17;;;;;;;6.40;3.13;;;;;;;22.64;50.24;100365.84;5050862;28;20035;-61
2023/07/25 05:37:42;;;;;;;6.82;3.33;;;;;;;22.67;49.86;100368.94;5050646;28;21375;-61
2023/07/25 05:40:08;;;;;;;7.80;3.10;;;;;;;22.73;49.99;100378.16;5051621;28;20029;-61
2023/07/25 05:42:33;;;;;;;11.23;3.33;;;;;;;22.76;49.01;100380.44;5017494;28;20029;-61
2023/07/25 05:44:59;;;;;;;5.28;2.88;;;;;;;22.82;49.81;100379.59;5034264;28;20037;-61
2023/07/25 05:47:26;;;;;;;7.32;3.08;;;;;;;22.92;48.58;100379.97;5051439;28;20052;-62
2023/07/25 05:49:51;;;;;;;10.18;3.20;;;;;;;23.00;49.00;100374.22;5051237;28;20119;-61
2023/07/25 05:52:17;;;;;;;4.68;3.17;;;;;;;23.04;48.97;100376.28;5051005;28;20497;-61
2023/07/25 05:54:43;;;;;;;6.72;3.35;;;;;;;23.11;48.54;100370.78;5037994;28;20037;-61
2023/07/25 05:57:09;;;;;;;4.63;3.42;;;;;;;23.22;48.92;100378.25;5036095;28;20034;-61
2023/07/25 05:59:34;;;;;;;5.22;3.35;;;;;;;23.33;49.17;100383.00;5039823;28;20056;-61
2023/07/25 06:01:59;;;;;;;9.02;3.63;;;;;;;23.46;49.03;100387.53;5053785;28;20120;-61
2023/07/25 06:04:25;;;;;;;8.45;3.17;;;;;;;23.54;48.17;100390.81;5056808;28;20037;-61
2023/07/25 06:06:50;;;;;;;9.77;3.72;;;;;;;23.69;48.77;100387.75;5056274;28;20404;-61
2023/07/25 06:09:16;;;;;;;5.13;3.15;;;;;;;23.94;47.75;100384.97;5021799;28;20037;-62
2023/07/25 06:11:41;;;;;;;8.02;3.25;;;;;;;24.23;48.02;100381.53;5054515;28;20050;-61
2023/07/25 06:14:06;;;;;;;6.57;2.90;;;;;;;24.44;47.43;100383.78;5054695;28;20066;-61
2023/07/25 06:16:32;;;;;;;3.80;2.70;;;;;;;24.56;47.15;100384.66;5054191;28;20040;-61
2023/07/25 06:18:57;;;;;;;9.02;3.60;;;;;;;24.69;47.07;100383.63;5054047;28;20040;-61
2023/07/25 06:21:22;;;;;;;6.63;3.03;;;;;;;24.76;47.15;100379.72;5037375;28;20138;-62
2023/07/25 06:23:48;;;;;;;7.78;3.42;;;;;;;24.89;47.15;100390.56;5037549;28;20033;-61
2023/07/25 06:26:13;;;;;;;8.80;2.72;;;;;;;24.95;46.83;100382.47;5053710;28;20163;-61
2023/07/25 06:28:39;;;;;;;9.02;2.80;;;;;;;24.96;47.07;100378.66;5055650;28;20167;-61
2023/07/25 06:31:05;;;;;;;5.68;2.83;;;;;;;24.95;46.69;100393.44;5037802;28;20033;-61
2023/07/25 06:33:31;;;;;;;8.02;3.25;;;;;;;24.92;46.75;100389.25;5054205;28;20052;-61
2023/07/25 06:35:57;;;;;;;8.27;3.42;;;;;;;24.90;46.60;100392.22;5055230;28;20037;-62
2023/07/25 06:38:22;;;;;;;10.35;2.67;;;;;;;24.86;46.54;100391.03;5037213;28;20036;-61
2023/07/25 06:40:47;;;;;;;9.55;2.40;;;;;;;24.84;46.39;100390.44;5053640;28;20571;-61
2023/07/25 06:43:13;;;;;;;3.33;2.55;;;;;;;24.84;46.37;100393.16;5054660;28;20041;-61
2023/07/25 06:45:38;;;;;;;12.48;3.95;;;;;;;24.84;46.42;100393.16;5053067;28;20041;-61
2023/07/25 06:48:04;;;;;;;4.18;1.88;;;;;;;24.87;46.08;100391.88;5036631;28;20087;-62
2023/07/25 06:50:32;;;;;;;10.82;2.50;;;;;;;24.94;45.98;100391.75;5020291;28;20404;-62
2023/07/25 06:52:58;;;;;;;6.68;2.10;;;;;;;24.99;45.96;100394.63;5053433;28;20037;-61
2023/07/25 06:55:23;;;;;;;5.95;2.53;;;;;;;25.10;45.93;100391.09;5053366;28;20117;-61
2023/07/25 06:57:48;;;;;;;3.83;2.08;;;;;;;25.29;45.76;100390.75;5056381;28;20029;-61
2023/07/25 07:00:14;;;;;;;4.53;1.92;;;;;;;25.49;45.44;100389.66;5036571;28;20076;-62
2023/07/25 07:02:40;;;;;;;3.97;1.98;;;;;;;25.60;45.71;100395.13;5053256;28;20412;-61
2023/07/25 07:05:06;;;;;;;12.95;3.65;;;;;;;25.70;45.42;100398.13;5052910;28;20583;-61
2023/07/25 07:07:31;;;;;;;8.30;2.30;;;;;;;25.84;45.10;100399.56;5036415;28;20116;-61
2023/07/25 07:09:57;;;;;;;9.43;2.15;;;;;;;25.95;44.96;100401.47;5054461;28;20098;-61
2023/07/25 07:12:22;;;;;;;6.88;2.50;;;;;;;26.13;45.01;100405.16;5052984;28;20068;-63
2023/07/25 07:14:47;;;;;;;7.15;2.60;;;;;;;26.30;44.73;100406.09;5053688;28;20098;-61
2023/07/25 07:17:13;;;;;;;10.20;2.47;;;;;;;26.48;44.74;100416.91;5054367;28;20056;-62
2023/07/25 07:19:38;;;;;;;6.53;1.88;;;;;;;26.65;44.36;100417.81;5053105;28;20124;-62
2023/07/25 07:22:04;;;;;;;7.20;2.42;;;;;;;26.75;44.00;100412.50;5036203;28;20037;-62
2023/07/25 07:24:29;;;;;;;6.80;2.13;;;;;;;26.89;43.55;100413.91;5019721;28;20075;-63
2023/07/25 07:26:54;;;;;;;8.43;2.50;;;;;;;26.97;44.09;100410.78;5052882;28;20178;-62
2023/07/25 07:29:20;;;;;;;11.30;1.92;;;;;;;27.15;43.28;100407.81;5032768;28;20033;-61
2023/07/25 07:31:45;;;;;;;5.72;1.80;;;;;;;27.35;43.11;100406.50;5034199;28;20033;-62
2023/07/25 07:34:14;;;;;;;5.80;2.05;;;;;;;27.28;43.03;100412.16;5032744;28;20128;-62
2023/07/25 07:36:40;;;;;;;5.38;1.80;;;;;;;27.40;42.48;100420.34;5033024;28;20060;-61
2023/07/25 07:39:05;;;;;;;8.80;1.98;;;;;;;27.76;42.31;100417.13;5016108;28;20449;-61
2023/07/25 07:41:31;;;;;;;14.43;3.42;;;;;;;27.89;42.79;100422.28;5016076;28;20044;-61
2023/07/25 07:43:56;;;;;;;9.02;1.95;;;;;;;28.08;42.36;100417.38;5033794;28;20124;-61
2023/07/25 07:46:21;;;;;;;3.95;1.63;;;;;;;28.13;41.74;100415.50;5032507;28;20543;-61
2023/07/25 07:48:47;;;;;;;3.95;0.80;;;;;;;28.22;41.54;100419.50;5032626;28;20094;-61
2023/07/25 07:51:12;;;;;;;1.48;1.08;;;;;;;28.25;41.12;100429.19;5016046;28;20060;-62
2023/07/25 07:53:38;;;;;;;2.55;0.85;;;;;;;28.15;41.14;100423.50;5032746;28;20489;-62
2023/07/25 07:56:07;;;;;;;8.32;1.50;;;;;;;28.08;40.94;100440.25;5033679;28;20037;-62
2023/07/25 07:58:32;;;;;;;3.05;1.13;;;;;;;27.98;41.69;100433.69;5049132;28;20037;-62
2023/07/25 08:00:58;;;;;;;1.73;0.95;;;;;;;27.89;41.70;100436.03;5016336;28;20026;-62
2023/07/25 08:03:23;;;;;;;8.77;1.35;;;;;;;27.88;41.75;100434.38;5033596;28;20064;-62
2023/07/25 08:05:58;;;;;;;3.17;1.20;;;;;;;27.79;40.72;100424.88;5015893;28;20033;-61
2023/07/25 08:08:23;;;;;;;5.90;1.45;;;;;;;27.75;40.40;100429.22;5033516;28;20036;-62
2023/07/25 08:10:49;;;;;;;3.92;1.15;;;;;;;27.68;40.22;100417.53;5015477;28;20029;-61
2023/07/25 08:13:14;;;;;;;7.47;1.30;;;;;;;27.62;40.26;100424.06;5032274;28;20033;-61
2023/07/25 08:15:40;;;;;;;7.55;1.40;;;;;;;27.52;40.51;100418.38;5033638;28;20128;-62
2023/07/25 08:18:05;;;;;;;4.10;1.52;;;;;;;27.42;40.59;100421.78;5033418;28;20493;-61
2023/07/25 08:20:30;;;;;;;6.03;1.35;;;;;;;27.34;40.68;100421.34;5015615;28;20113;-63
2023/07/25 08:22:56;;;;;;;5.60;1.38;;;;;;;27.28;41.29;100427.81;5016364;28;20042;-61
2023/07/25 08:25:21;;;;;;;12.25;1.77;;;;;;;27.19;40.37;100430.19;5032524;28;20045;-61
2023/07/25 08:27:47;;;;;;;4.22;0.95;;;;;;;27.09;40.81;100428.06;5031908;28;20579;-61
2023/07/25 08:30:12;;;;;;;10.07;1.77;;;;;;;26.96;41.11;100428.38;4999759;28;20034;-61
2023/07/25 08:32:38;;;;;;;3.10;0.70;;;;;;;26.86;40.82;100430.91;5032324;28;20034;-61
2023/07/25 08:35:04;;;;;;;3.35;1.45;;;;;;;26.75;40.46;100429.00;4998928;28;20029;-61
2023/07/25 08:37:29;;;;;;;2.28;1.00;;;;;;;26.69;40.83;100435.47;5031968;28;20037;-61
2023/07/25 08:39:54;;;;;;;3.63;1.00;;;;;;;26.69;40.22;100437.41;5015251;28;20032;-62
2023/07/25 08:42:23;;;;;;;6.63;1.25;;;;;;;26.65;40.66;100439.81;5032774;28;20400;-62
2023/07/25 08:44:51;;;;;;;8.10;1.00;;;;;;;26.67;40.12;100451.38;5024450;28;20033;-62
2023/07/25 08:47:26;;;;;;;8.25;1.15;;;;;;;26.69;40.47;100453.91;5051201;28;20471;-62
2023/07/25 08:49:53;;;;;;;5.85;0.90;;;;;;;26.65;40.14;100450.81;5052330;28;20068;-63
2023/07/25 08:52:20;;;;;;;6.13;1.40;;;;;;;26.69;40.20;100449.22;5052547;28;20024;-61
2023/07/25 08:54:47;;;;;;;3.22;0.98;;;;;;;26.77;40.81;100448.03;5051380;28;20056;-61
2023/07/25 08:57:13;;;;;;;2.80;1.10;;;;;;;26.84;40.19;100455.06;5034772;28;20025;-61
2023/07/25 08:59:39;;;;;;;4.18;1.20;;;;;;;26.91;39.89;100444.75;5051088;28;20029;-62
2023/07/25 09:02:05;;;;;;;3.30;1.05;;;;;;;26.98;40.32;100450.94;5051348;28;20381;-61
2023/07/25 09:04:31;;;;;;;3.35;1.15;;;;;;;27.04;39.92;100454.63;5051544;28;20029;-61
2023/07/25 09:06:57;;;;;;;6.05;1.10;;;;;;;27.10;39.69;100454.50;5052487;28;20029;-61
2023/07/25 09:09:23;;;;;;;4.53;0.98;;;;;;;27.12;39.99;100457.81;5051026;28;20032;-63
2023/07/25 09:11:48;;;;;;;9.50;1.38;;;;;;;27.13;39.61;100459.50;5034617;28;20033;-61
2023/07/25 09:14:14;;;;;;;5.75;2.55;;;;;;;27.11;39.56;100464.41;5033582;28;20396;-62
2023/07/25 09:16:40;;;;;;;4.78;1.05;;;;;;;27.12;40.21;100471.56;5034516;28;20370;-62
2023/07/25 09:19:05;;;;;;;2.55;0.70;;;;;;;27.13;38.95;100465.00;5051070;28;20536;-62
2023/07/25 09:21:30;;;;;;;4.82;0.68;;;;;;;27.12;39.08;100474.31;5034204;28;20029;-62
2023/07/25 09:23:58;;;;;;;8.05;1.17;;;;;;;27.10;39.53;100468.25;5034489;28;20025;-61
2023/07/25 09:26:26;;;;;;;5.30;1.02;;;;;;;27.10;38.91;100475.66;5050506;28;20025;-62
2023/07/25 09:28:53;;;;;;;2.78;0.82;;;;;;;27.09;38.77;100471.22;5050935;28;20025;-61
2023/07/25 09:31:19;;;;;;;7.80;1.20;;;;;;;27.05;39.01;100481.06;5051109;28;20034;-61
2023/07/25 09:33:49;;;;;;;7.65;1.13;;;;;;;27.04;39.74;100477.47;5050788;28;20032;-62
2023/07/25 09:36:15;;;;;;;2.05;0.80;;;;;;;27.04;39.76;100474.72;5034021;28;20028;-61
2023/07/25 09:38:50;;;;;;;7.72;1.90;;;;;;;27.05;39.91;100481.06;5037135;28;20033;-61
2023/07/25 09:41:17;;;;;;;2.78;0.77;;;;;;;27.10;39.97;100482.00;5054752;28;20116;-61
2023/07/25 09:43:42;;;;;;;6.63;1.23;;;;;;;27.17;40.21;100482.66;5054634;28;20048;-61
2023/07/25 09:46:08;;;;;;;5.18;1.02;;;;;;;27.32;39.31;100484.03;5021574;28;20025;-61
2023/07/25 09:48:33;;;;;;;5.03;1.35;;;;;;;27.45;39.99;100484.59;5037803;28;20087;-61
2023/07/25 09:50:59;;;;;;;5.93;1.15;;;;;;;27.56;39.65;100477.34;5054518;28;20401;-61
2023/07/25 09:53:24;;;;;;;7.43;1.65;;;;;;;27.75;39.27;100470.50;5055708;28;20048;-62
2023/07/25 09:55:50;;;;;;;3.88;1.20;;;;;;;27.80;40.21;100476.13;5037901;28;20045;-61
2023/07/25 09:58:15;;;;;;;5.43;1.20;;;;;;;27.88;39.72;100475.69;5055429;28;20041;-62
2023/07/25 10:00:41;;;;;;;9.15;1.20;;;;;;;28.03;40.11;100484.22;5054554;28;20037;-62
2023/07/25 10:03:10;;;;;;;5.88;1.08;;;;;;;28.16;40.07;100489.41;5054279;28;20071;-62
2023/07/25 10:05:42;;;;;;;5.50;1.05;;;;;;;28.26;39.60;100491.44;5037469;28;20033;-62
2023/07/25 10:08:08;;;;;;;4.85;1.30;;;;;;;28.35;39.40;100489.09;5037707;28;20031;-62
2023/07/25 10:10:33;;;;;;;4.32;1.38;;;;;;;28.40;39.93;100483.66;5054118;28;20029;-62
2023/07/25 10:12:59;;;;;;;3.65;1.27;;;;;;;28.45;39.44;100490.06;5055354;28;20037;-61
2023/07/25 10:15:25;;;;;;;2.55;1.15;;;;;;;28.41;39.31;100485.31;5054292;28;20033;-62
2023/07/25 10:17:50;;;;;;;6.80;1.63;;;;;;;28.39;39.87;100491.09;5054909;28;20400;-61
2023/07/25 10:20:22;;;;;;;11.57;2.05;;;;;;;28.41;39.60;100493.59;5037208;28;20039;-62
2023/07/25 10:22:47;;;;;;;5.55;0.88;;;;;;;28.51;39.17;100499.25;5054113;28;20123;-62
2023/07/25 10:25:28;;;;;;;10.00;1.75;;;;;;;28.51;39.22;100494.56;5055128;28;20049;-62
2023/07/25 10:28:01;;;;;;;5.38;1.60;;;;;;;28.54;39.40;100498.72;5053910;28;20466;-62
2023/07/25 10:30:31;;;;;;;5.28;1.00;;;;;;;28.61;39.04;100499.41;5037188;28;20040;-62
2023/07/25 10:33:03;;;;;;;2.55;1.02;;;;;;;28.63;39.30;100491.72;5053931;28;20048;-61
2023/07/25 10:35:41;;;;;;;3.22;1.20;;;;;;;28.67;39.13;100495.66;5055042;28;20033;-61
2023/07/25 10:38:09;;;;;;;2.65;1.00;;;;;;;28.64;39.33;100498.91;5053706;28;20049;-62
2023/07/25 10:41:01;;;;;;;7.00;1.75;;;;;;;28.64;39.07;100491.50;5053319;28;20036;-62
2023/07/25 10:43:29;;;;;;;7.68;1.90;;;;;;;28.61;38.74;100500.22;5053015;28;20041;-63
2023/07/25 10:45:56;;;;;;;19.92;2.17;;;;;;;28.51;38.73;100505.59;5053088;28;20024;-62
2023/07/25 10:48:33;;;;;;;3.88;1.63;;;;;;;28.35;38.67;100494.59;5053070;28;20114;-62
2023/07/25 10:51:00;;;;;;;3.72;1.15;;;;;;;28.20;39.68;100498.81;5053033;28;20029;-62
2023/07/25 10:53:25;;;;;;;4.65;0.90;;;;;;;28.07;40.20;100490.91;5036858;28;20047;-61
2023/07/25 10:56:03;;;;;;;4.15;1.25;;;;;;;27.91;39.47;100499.97;5036814;28;20179;-61
2023/07/25 10:58:29;;;;;;;9.35;1.60;;;;;;;27.85;39.72;100489.97;5054465;28;20041;-61
2023/07/25 11:00:54;;;;;;;2.15;1.00;;;;;;;28.09;39.79;100490.63;5036990;28;20630;-62
2023/07/25 11:03:27;;;;;;;6.68;2.08;;;;;;;28.16;39.36;100497.66;5036864;28;20029;-62
2023/07/25 11:06:13;;;;;;;9.25;1.90;;;;;;;28.50;39.14;100490.16;5053187;28;20033;-62
2023/07/25 11:08:41;;;;;;;6.35;1.45;;;;;;;29.07;38.79;100498.88;5054342;28;20033;-62
2023/07/25 11:11:11;;;;;;;9.32;2.60;;;;;;;30.20;37.14;100489.50;5036760;28;20048;-62
2023/07/25 11:13:38;;;;;;;4.63;1.42;;;;;;;30.46;37.11;100485.81;5054309;28;20041;-63
2023/07/25 11:16:05;;;;;;;6.13;1.60;;;;;;;30.63;37.23;100484.81;5053028;28;20044;-63
2023/07/25 11:18:37;;;;;;;8.85;2.05;;;;;;;31.30;36.89;100485.59;5053102;28;20159;-62